createdAt,value
2023-02-06T00:01:51.586Z,8.63
2023-02-06T00:04:21.236Z,9.25
2023-02-06T00:06:49.914Z,8.65
2023-02-06T00:09:19.860Z,9.13
2023-02-06T00:11:48.694Z,8.68
2023-02-06T00:14:17.121Z,9.02
2023-02-06T00:16:45.606Z,9.52
2023-02-06T00:19:14.107Z,9.38
2023-02-06T00:21:42.854Z,9.40
2023-02-06T00:24:11.340Z,9.25
2023-02-06T00:26:41.214Z,10.63
2023-02-06T00:29:09.942Z,7.32
2023-02-06T00:31:38.902Z,8.38
2023-02-06T00:34:08.292Z,7.65
2023-02-06T00:36:36.870Z,7.28
2023-02-06T00:39:05.541Z,8.02
2023-02-06T00:41:34.015Z,8.57
2023-02-06T00:44:04.003Z,8.18
2023-02-06T00:46:33.328Z,8.23
2023-02-06T00:49:02.055Z,7.50
2023-02-06T00:51:31.019Z,7.32
2023-02-06T00:53:59.545Z,8.52
2023-02-06T00:56:27.998Z,7.68
2023-02-06T00:58:56.961Z,7.13
2023-02-06T01:01:27.232Z,6.82
2023-02-06T01:03:57.160Z,7.93
2023-02-06T01:06:25.889Z,7.10
2023-02-06T01:08:54.651Z,8.55
2023-02-06T01:11:27.535Z,9.82
2023-02-06T01:13:56.539Z,8.43
2023-02-06T01:16:28.202Z,7.20
2023-02-06T01:18:57.102Z,7.97
2023-02-06T01:21:26.844Z,7.93
2023-02-06T01:23:56.763Z,7.82
2023-02-06T01:26:27.955Z,7.63
2023-02-06T01:28:56.912Z,8.43
2023-02-06T01:31:30.397Z,8.13
2023-02-06T01:34:01.182Z,6.88
2023-02-06T01:36:31.145Z,7.68
2023-02-06T01:38:59.609Z,9.52
2023-02-06T01:41:28.215Z,8.30
2023-02-06T01:44:15.924Z,7.32
2023-02-06T01:46:48.803Z,8.25
2023-02-06T01:49:24.862Z,8.70
2023-02-06T01:51:57.290Z,8.27
2023-02-06T01:54:26.343Z,8.25
2023-02-06T01:57:03.125Z,8.15
2023-02-06T01:59:32.114Z,7.50
2023-02-06T02:02:02.201Z,9.40
2023-02-06T02:04:34.499Z,8.48
2023-02-06T02:07:13.513Z,7.47
2023-02-06T02:09:43.631Z,8.02
2023-02-06T02:12:13.075Z,7.88
2023-02-06T02:14:45.810Z,6.82
2023-02-06T02:17:37.075Z,9.05
2023-02-06T02:21:03.195Z,7.90
2023-02-06T02:23:43.386Z,8.70
2023-02-06T02:27:01.825Z,7.70
2023-02-06T02:30:24.344Z,7.63
2023-02-06T02:33:50.838Z,8.40
2023-02-06T02:36:29.529Z,7.80
2023-02-06T02:39:14.926Z,7.80
2023-02-06T02:41:53.957Z,8.30
2023-02-06T02:44:36.408Z,8.25
2023-02-06T02:47:13.098Z,7.90
2023-02-06T02:49:46.893Z,8.68
2023-02-06T02:52:16.984Z,7.95
2023-02-06T02:54:45.522Z,8.82
2023-02-06T02:57:23.329Z,7.22
2023-02-06T02:59:53.043Z,8.60
2023-02-06T03:02:26.951Z,8.18
2023-02-06T03:05:01.120Z,8.35
2023-02-06T03:07:41.876Z,8.35
2023-02-06T03:10:25.552Z,8.60
2023-02-06T03:13:06.115Z,8.63
2023-02-06T03:15:46.981Z,6.35
2023-02-06T03:18:26.697Z,8.48
2023-02-06T03:20:56.183Z,7.80
2023-02-06T03:23:33.674Z,7.50
2023-02-06T03:26:07.614Z,7.22
2023-02-06T03:28:43.176Z,8.20
2023-02-06T03:31:16.409Z,8.23
2023-02-06T03:33:53.193Z,7.72
2023-02-06T03:36:22.200Z,8.10
2023-02-06T03:38:54.055Z,8.02
2023-02-06T03:41:29.666Z,8.00
2023-02-06T03:44:00.291Z,7.32
2023-02-06T03:46:33.408Z,8.13
2023-02-06T03:49:08.349Z,7.00
2023-02-06T03:51:43.805Z,7.53
2023-02-06T03:54:20.426Z,7.60
2023-02-06T03:56:54.448Z,6.90
2023-02-06T03:59:23.949Z,7.38
2023-02-06T04:01:57.775Z,6.93
2023-02-06T04:04:30.293Z,6.90
2023-02-06T04:07:03.924Z,7.97
2023-02-06T04:09:33.900Z,6.93
2023-02-06T04:12:02.520Z,7.85
2023-02-06T04:14:31.319Z,7.65
2023-02-06T04:16:59.909Z,7.88
2023-02-06T04:19:28.375Z,6.78
2023-02-06T04:21:56.899Z,7.80
2023-02-06T04:24:25.740Z,7.15
2023-02-06T04:26:55.631Z,7.95
2023-02-06T04:29:24.303Z,6.78
2023-02-06T04:31:53.323Z,7.88
2023-02-06T04:34:22.229Z,8.18
2023-02-06T04:36:50.722Z,7.07
2023-02-06T04:39:19.322Z,6.90
2023-02-06T04:41:47.900Z,7.20
2023-02-06T04:44:18.158Z,8.43
2023-02-06T04:46:47.493Z,7.70
2023-02-06T04:49:17.418Z,8.43
2023-02-06T04:51:46.040Z,7.60
2023-02-06T04:54:17.760Z,9.30
2023-02-06T04:56:46.848Z,7.65
2023-02-06T04:59:17.080Z,7.28
2023-02-06T05:01:45.807Z,8.45
2023-02-06T05:04:14.480Z,8.02
2023-02-06T05:06:43.336Z,8.25
2023-02-06T05:09:11.940Z,7.50
2023-02-06T05:11:40.495Z,7.90
2023-02-06T05:14:08.997Z,7.80
2023-02-06T05:16:39.350Z,8.05
2023-02-06T05:19:08.493Z,7.90
2023-02-06T05:21:37.422Z,9.70
2023-02-06T05:24:06.400Z,7.32
2023-02-06T05:26:35.016Z,8.00
2023-02-06T05:29:03.668Z,9.68
2023-02-06T05:31:32.278Z,8.40
2023-02-06T05:34:02.428Z,9.35
2023-02-06T05:36:31.086Z,8.57
2023-02-06T05:38:59.637Z,8.90
2023-02-06T05:41:28.487Z,9.80
2023-02-06T05:43:57.113Z,10.38
2023-02-06T05:46:25.935Z,8.90
2023-02-06T05:48:54.753Z,9.00
2023-02-06T05:51:24.837Z,9.27
2023-02-06T05:53:53.451Z,9.05
2023-02-06T05:56:22.110Z,8.50
2023-02-06T05:58:50.826Z,9.27
2023-02-06T06:01:19.494Z,8.43
2023-02-06T06:03:48.090Z,8.25
2023-02-06T06:06:16.857Z,7.85
2023-02-06T06:08:46.856Z,8.13
2023-02-06T06:11:15.571Z,8.57
2023-02-06T06:13:44.311Z,7.00
2023-02-06T06:16:12.994Z,8.20
2023-02-06T06:18:41.825Z,8.38
2023-02-06T06:21:10.417Z,8.07
2023-02-06T06:23:39.111Z,9.20
2023-02-06T06:26:09.666Z,7.75
2023-02-06T06:28:38.966Z,8.05
2023-02-06T06:31:12.735Z,9.63
2023-02-06T06:33:42.423Z,9.00
2023-02-06T06:36:14.521Z,9.23
2023-02-06T06:38:43.332Z,8.15
2023-02-06T06:41:13.339Z,8.77
2023-02-06T06:43:42.290Z,8.00
2023-02-06T06:46:11.313Z,7.63
2023-02-06T06:48:40.920Z,8.88
2023-02-06T06:51:09.547Z,9.93
2023-02-06T06:53:40.141Z,8.05
2023-02-06T06:56:14.369Z,8.85
2023-02-06T06:58:43.760Z,8.55
2023-02-06T07:01:12.809Z,9.30
2023-02-06T07:03:44.201Z,9.55
2023-02-06T07:06:13.217Z,8.57
2023-02-06T07:08:43.470Z,8.75
2023-02-06T07:11:15.558Z,10.10
2023-02-06T07:13:45.311Z,9.00
2023-02-06T07:16:14.570Z,8.85
2023-02-06T07:18:43.138Z,10.48
2023-02-06T07:21:13.755Z,8.70
2023-02-06T07:23:42.678Z,10.02
2023-02-06T07:26:11.257Z,10.35
2023-02-06T07:28:42.188Z,9.70
2023-02-06T07:31:11.847Z,10.02
2023-02-06T07:33:40.327Z,8.80
2023-02-06T07:36:12.359Z,10.18
2023-02-06T07:38:41.734Z,9.25
2023-02-06T07:41:12.442Z,10.27
2023-02-06T07:43:42.609Z,9.05
2023-02-06T07:46:11.256Z,9.52
2023-02-06T07:48:40.006Z,8.60
2023-02-06T07:51:10.451Z,9.35
2023-02-06T07:53:39.576Z,11.35
2023-02-06T07:56:14.324Z,9.25
2023-02-06T07:58:44.487Z,10.40
2023-02-06T08:01:12.985Z,9.68
2023-02-06T08:03:41.538Z,9.30
2023-02-06T08:06:12.225Z,10.68
2023-02-06T08:08:40.790Z,10.35
2023-02-06T08:11:12.617Z,10.68
2023-02-06T08:13:41.232Z,9.98
2023-02-06T08:16:16.211Z,10.23
2023-02-06T08:18:45.342Z,9.32
2023-02-06T08:21:17.108Z,9.85
2023-02-06T08:23:46.174Z,11.13
2023-02-06T08:26:17.139Z,10.25
2023-02-06T08:28:48.939Z,10.75
2023-02-06T08:31:22.646Z,12.57
2023-02-06T08:33:52.044Z,11.48
2023-02-06T08:36:23.656Z,11.23
2023-02-06T08:38:53.454Z,10.95
2023-02-06T08:41:25.882Z,11.10
2023-02-06T08:43:57.914Z,12.60
2023-02-06T08:46:31.663Z,11.00
2023-02-06T08:49:03.012Z,11.10
2023-02-06T08:51:33.206Z,12.05
2023-02-06T08:54:04.295Z,13.38
2023-02-06T08:56:35.926Z,12.40
2023-02-06T08:59:06.687Z,12.40
2023-02-06T09:01:38.321Z,12.35
2023-02-06T09:04:10.859Z,13.07
2023-02-06T09:06:44.424Z,12.85
2023-02-06T09:09:14.570Z,12.27
2023-02-06T09:11:43.376Z,11.40
2023-02-06T09:14:17.559Z,11.63
2023-02-06T09:16:47.599Z,11.15
2023-02-06T09:19:16.270Z,11.40
2023-02-06T09:21:44.872Z,12.50
2023-02-06T09:24:13.710Z,10.45
2023-02-06T09:26:58.534Z,11.02
2023-02-06T09:29:31.502Z,11.02
2023-02-06T09:32:02.458Z,10.55
2023-02-06T09:34:31.272Z,10.95
2023-02-06T09:37:03.111Z,12.38
2023-02-06T09:39:32.809Z,10.32
2023-02-06T09:42:07.840Z,10.68
2023-02-06T09:44:41.914Z,9.25
2023-02-06T09:47:24.833Z,9.10
2023-02-06T09:49:58.712Z,9.60
2023-02-06T09:53:02.447Z,10.00
2023-02-06T09:55:41.115Z,9.90
2023-02-06T09:58:24.289Z,10.52
2023-02-06T10:01:01.861Z,7.75
2023-02-06T10:04:05.626Z,9.63
2023-02-06T10:06:46.586Z,8.68
2023-02-06T10:09:21.354Z,9.23
2023-02-06T10:11:57.401Z,8.95
2023-02-06T10:14:36.653Z,9.02
2023-02-06T10:17:15.929Z,9.82
2023-02-06T10:19:54.191Z,9.77
2023-02-06T10:22:31.763Z,8.60
2023-02-06T10:25:22.238Z,9.35
2023-02-06T10:27:57.833Z,9.37
2023-02-06T10:30:49.000Z,8.88
2023-02-06T10:33:30.040Z,8.77
2023-02-06T10:36:13.298Z,12.50
2023-02-06T10:39:10.611Z,10.03
2023-02-06T10:41:54.426Z,10.43
2023-02-06T10:44:31.402Z,9.20
2023-02-06T10:47:00.820Z,8.50
2023-02-06T10:49:37.904Z,8.10
2023-02-06T10:52:23.086Z,8.60
2023-02-06T10:54:56.512Z,9.40
2023-02-06T10:57:29.407Z,8.20
2023-02-06T11:00:02.874Z,8.77
2023-02-06T11:03:05.376Z,9.40
2023-02-06T11:05:36.759Z,8.30
2023-02-06T11:08:20.069Z,8.50
2023-02-06T11:10:49.007Z,10.20
2023-02-06T11:13:27.749Z,8.50
2023-02-06T11:16:04.619Z,8.20
2023-02-06T11:18:40.191Z,9.40
2023-02-06T11:21:11.244Z,7.33
2023-02-06T11:23:42.602Z,7.87
2023-02-06T11:26:15.566Z,7.73
2023-02-06T11:28:54.953Z,7.27
2023-02-06T11:31:45.888Z,6.13
2023-02-06T11:34:25.923Z,7.27
2023-02-06T11:36:57.719Z,6.73
2023-02-06T11:39:31.688Z,6.13
2023-02-06T11:42:07.185Z,6.27
2023-02-06T11:44:45.189Z,5.70
2023-02-06T11:47:37.574Z,5.60
2023-02-06T11:50:26.877Z,4.93
2023-02-06T11:53:08.515Z,4.93
2023-02-06T11:55:42.634Z,5.80
2023-02-06T11:58:23.491Z,6.07
2023-02-06T12:01:04.233Z,5.40
2023-02-06T12:03:38.373Z,5.37
2023-02-06T12:06:15.195Z,4.60
2023-02-06T12:08:50.350Z,5.10
2023-02-06T12:11:29.207Z,4.40
2023-02-06T12:14:05.767Z,5.10
2023-02-06T12:16:39.440Z,5.60
2023-02-06T12:19:17.402Z,4.97
2023-02-06T12:21:51.592Z,5.30
2023-02-06T12:24:31.499Z,6.90
2023-02-06T12:27:12.999Z,4.90
2023-02-06T12:29:47.435Z,6.30
2023-02-06T12:32:23.129Z,5.60
2023-02-06T12:34:54.915Z,7.10
2023-02-06T12:37:32.511Z,7.20
2023-02-06T12:40:02.603Z,5.47
2023-02-06T12:42:42.960Z,5.20
2023-02-06T12:45:31.681Z,6.37
2023-02-06T12:48:12.212Z,6.73
2023-02-06T12:50:47.968Z,6.17
2023-02-06T12:53:26.294Z,7.30
2023-02-06T12:56:03.712Z,5.70
2023-02-06T12:58:49.863Z,6.73
2023-02-06T13:01:41.092Z,5.97
2023-02-06T13:04:17.812Z,6.90
2023-02-06T13:06:54.821Z,4.70
2023-02-06T13:09:29.543Z,5.00
2023-02-06T13:12:13.552Z,6.60
2023-02-06T13:14:50.211Z,5.53
2023-02-06T13:17:23.621Z,5.60
2023-02-06T13:20:06.983Z,6.60
2023-02-06T13:22:49.367Z,7.60
2023-02-06T13:25:51.605Z,6.30
2023-02-06T13:28:59.732Z,6.00
2023-02-06T13:31:34.448Z,6.80
2023-02-06T13:34:17.594Z,5.37
2023-02-06T13:36:53.725Z,6.03
2023-02-06T13:39:33.732Z,6.10
2023-02-06T13:42:36.561Z,6.50
2023-02-06T13:45:11.417Z,5.20
2023-02-06T13:48:44.482Z,5.60
2023-02-06T13:51:48.465Z,6.30
2023-02-06T13:55:06.667Z,6.73
2023-02-06T13:58:03.636Z,6.67
2023-02-06T14:00:39.569Z,6.57
2023-02-06T14:03:17.527Z,7.73
2023-02-06T14:05:59.970Z,7.13
2023-02-06T14:08:55.646Z,6.30
2023-02-06T14:12:06.073Z,5.33
2023-02-06T14:14:54.118Z,6.20
2023-02-06T14:17:46.480Z,6.57
2023-02-06T14:20:32.844Z,7.33
2023-02-06T14:23:17.332Z,5.87
2023-02-06T14:26:06.497Z,7.53
2023-02-06T14:28:48.058Z,6.70
2023-02-06T14:31:33.484Z,6.80
2023-02-06T14:34:29.733Z,5.90
2023-02-06T14:37:23.654Z,7.27
2023-02-06T14:39:55.264Z,6.80
2023-02-06T14:42:28.100Z,6.97
2023-02-06T14:45:03.140Z,5.53
2023-02-06T14:47:42.545Z,6.23
2023-02-06T14:50:23.265Z,7.20
2023-02-06T14:52:58.118Z,6.77
2023-02-06T14:55:40.474Z,6.80
2023-02-06T14:58:21.812Z,6.40
2023-02-06T15:00:50.595Z,7.00
2023-02-06T15:03:23.309Z,7.33
2023-02-06T15:06:03.207Z,7.87
2023-02-06T15:08:33.390Z,7.17
2023-02-06T15:11:17.912Z,7.30
2023-02-06T15:13:53.107Z,7.80
2023-02-06T15:16:22.929Z,6.97
2023-02-06T15:18:51.617Z,7.63
2023-02-06T15:21:22.207Z,6.70
2023-02-06T15:24:10.387Z,7.50
2023-02-06T15:26:50.989Z,8.07
2023-02-06T15:29:23.950Z,8.33
2023-02-06T15:31:59.117Z,8.00
2023-02-06T15:34:29.601Z,8.80
2023-02-06T15:36:58.261Z,8.93
2023-02-06T15:39:28.491Z,9.23
2023-02-06T15:41:58.988Z,9.10
2023-02-06T15:44:34.403Z,9.37
2023-02-06T15:47:08.931Z,12.17
2023-02-06T15:49:42.471Z,9.63
2023-02-06T15:52:13.286Z,10.40
2023-02-06T15:54:45.090Z,11.70
2023-02-06T15:57:30.478Z,11.37
2023-02-06T15:59:59.755Z,9.40
2023-02-06T16:02:34.673Z,11.23
2023-02-06T16:05:06.247Z,12.83
2023-02-06T16:07:37.158Z,11.53
2023-02-06T16:10:25.200Z,12.05
2023-02-06T16:12:59.021Z,11.13
2023-02-06T16:15:33.248Z,10.52
2023-02-06T16:18:20.384Z,10.60
2023-02-06T16:20:49.381Z,11.37
2023-02-06T16:23:26.144Z,12.53
2023-02-06T16:26:08.528Z,18.03
2023-02-06T16:28:51.669Z,16.70
2023-02-06T16:31:20.349Z,11.37
2023-02-06T16:33:52.411Z,13.60
2023-02-06T16:36:24.793Z,11.80
2023-02-06T16:39:03.798Z,11.40
2023-02-06T16:41:35.367Z,15.43
2023-02-06T16:44:13.252Z,12.45
2023-02-06T16:46:42.519Z,13.98
2023-02-06T16:49:14.956Z,11.90
2023-02-06T16:51:46.548Z,12.50
2023-02-06T16:54:24.676Z,13.70
2023-02-06T16:56:54.543Z,15.77
2023-02-06T16:59:24.769Z,14.73
2023-02-06T17:01:53.866Z,15.73
2023-02-06T17:04:22.466Z,18.80
2023-02-06T17:06:52.154Z,13.70
2023-02-06T17:09:21.018Z,15.05
2023-02-06T17:11:49.660Z,15.60
2023-02-06T17:14:19.184Z,13.02
2023-02-06T17:16:49.401Z,15.23
2023-02-06T17:19:17.924Z,14.77
2023-02-06T17:21:46.702Z,15.33
2023-02-06T17:24:15.374Z,18.50
2023-02-06T17:26:44.089Z,17.02
2023-02-06T17:29:15.390Z,16.63
2023-02-06T17:31:44.014Z,15.00
2023-02-06T17:34:15.143Z,15.83
2023-02-06T17:36:45.569Z,17.08
2023-02-06T17:39:14.962Z,16.03
2023-02-06T17:41:43.573Z,14.87
2023-02-06T17:44:12.682Z,14.32
2023-02-06T17:46:41.717Z,16.30
2023-02-06T17:49:10.512Z,14.77
2023-02-06T17:51:43.329Z,16.80
2023-02-06T17:54:12.811Z,14.38
2023-02-06T17:56:41.688Z,18.98
2023-02-06T17:59:10.725Z,17.85
2023-02-06T18:01:39.302Z,17.33
2023-02-06T18:04:08.245Z,16.40
2023-02-06T18:06:37.252Z,16.58
2023-02-06T18:09:07.905Z,15.52
2023-02-06T18:11:36.646Z,16.70
2023-02-06T18:14:06.150Z,19.75
2023-02-06T18:16:35.163Z,19.10
2023-02-06T18:19:04.125Z,18.55
2023-02-06T18:21:34.729Z,16.80
2023-02-06T18:24:03.590Z,17.92
2023-02-06T18:26:34.056Z,17.38
2023-02-06T18:29:07.076Z,14.80
2023-02-06T18:31:37.764Z,16.42
2023-02-06T18:34:09.218Z,15.90
2023-02-06T18:36:38.726Z,15.75
2023-02-06T18:39:07.847Z,17.05
2023-02-06T18:41:57.243Z,18.38
2023-02-06T18:44:26.149Z,16.05
2023-02-06T18:46:55.132Z,19.05
2023-02-06T18:49:24.647Z,19.23
2023-02-06T18:51:53.320Z,17.67
2023-02-06T18:54:22.179Z,18.00
2023-02-06T18:56:52.545Z,19.42
2023-02-06T18:59:22.031Z,16.70
2023-02-06T19:01:51.939Z,18.48
2023-02-06T19:04:21.910Z,16.88
2023-02-06T19:06:51.693Z,20.42
2023-02-06T19:09:21.013Z,20.73
2023-02-06T19:11:51.306Z,20.00
2023-02-06T19:14:22.598Z,20.90
2023-02-06T19:16:55.045Z,17.45
2023-02-06T19:19:23.833Z,24.75
2023-02-06T19:21:52.834Z,18.80
2023-02-06T19:24:21.831Z,20.58
2023-02-06T19:26:51.885Z,18.42
2023-02-06T19:29:33.601Z,19.42
2023-02-06T19:32:04.670Z,19.27
2023-02-06T19:34:36.079Z,18.23
2023-02-06T19:37:05.303Z,17.13
2023-02-06T19:39:35.843Z,16.08
2023-02-06T19:42:07.556Z,14.73
2023-02-06T19:44:36.895Z,17.80
2023-02-06T19:47:05.867Z,16.58
2023-02-06T19:49:34.501Z,20.83
2023-02-06T19:52:03.645Z,17.48
2023-02-06T19:54:32.304Z,16.67
2023-02-06T19:57:01.684Z,13.23
2023-02-06T19:59:32.119Z,15.98
2023-02-06T20:02:03.349Z,14.70
2023-02-06T20:04:35.502Z,14.13
2023-02-06T20:07:04.770Z,15.98
2023-02-06T20:09:33.403Z,14.93
2023-02-06T20:12:02.781Z,16.75
2023-02-06T20:14:32.750Z,14.85
2023-02-06T20:17:01.666Z,12.40
2023-02-06T20:19:31.034Z,13.63
2023-02-06T20:22:02.571Z,13.27
2023-02-06T20:24:34.741Z,13.95
2023-02-06T20:27:07.761Z,19.75
2023-02-06T20:29:40.286Z,14.80
2023-02-06T20:32:09.248Z,13.48
2023-02-06T20:34:38.579Z,17.80
2023-02-06T20:37:07.218Z,13.65
2023-02-06T20:39:36.069Z,16.10
2023-02-06T20:42:05.179Z,16.20
2023-02-06T20:44:33.988Z,15.50
2023-02-06T20:47:04.079Z,17.33
2023-02-06T20:49:32.912Z,15.98
2023-02-06T20:52:03.307Z,16.05
2023-02-06T20:54:31.922Z,16.10
2023-02-06T20:57:01.276Z,13.98
2023-02-06T20:59:30.403Z,14.68
2023-02-06T21:01:59.205Z,15.68
2023-02-06T21:04:32.790Z,15.50
2023-02-06T21:07:01.629Z,14.35
2023-02-06T21:09:30.503Z,15.68
2023-02-06T21:11:59.172Z,16.48
2023-02-06T21:14:29.944Z,15.98
2023-02-06T21:16:58.888Z,15.63
2023-02-06T21:19:31.458Z,14.25
2023-02-06T21:22:00.730Z,14.07
2023-02-06T21:24:29.458Z,13.50
2023-02-06T21:26:58.087Z,13.45
2023-02-06T21:29:26.947Z,12.18
2023-02-06T21:32:07.439Z,12.57
2023-02-06T21:34:43.880Z,13.50
2023-02-06T21:37:12.518Z,13.30
2023-02-06T21:39:41.744Z,12.63
2023-02-06T21:42:11.446Z,16.10
2023-02-06T21:44:40.398Z,16.42
2023-02-06T21:47:10.082Z,16.80
2023-02-06T21:49:38.893Z,16.20
2023-02-06T21:52:08.829Z,16.48
2023-02-06T21:54:37.586Z,15.93
2023-02-06T21:57:06.449Z,18.70
2023-02-06T21:59:36.346Z,15.80
2023-02-06T22:02:05.820Z,13.88
2023-02-06T22:04:34.416Z,14.90
2023-02-06T22:07:03.073Z,15.55
2023-02-06T22:09:33.170Z,14.15
2023-02-06T22:12:02.743Z,14.07
2023-02-06T22:14:31.258Z,11.93
2023-02-06T22:16:59.878Z,12.18
2023-02-06T22:19:29.169Z,12.65
2023-02-06T22:21:58.013Z,12.57
2023-02-06T22:24:26.638Z,11.55
2023-02-06T22:26:56.741Z,14.10
2023-02-06T22:29:25.601Z,12.25
2023-02-06T22:31:54.497Z,12.23
2023-02-06T22:34:23.225Z,12.45
2023-02-06T22:36:52.137Z,11.25
2023-02-06T22:39:20.913Z,12.20
2023-02-06T22:41:50.657Z,12.95
2023-02-06T22:44:23.426Z,11.32
2023-02-06T22:46:54.459Z,10.48
2023-02-06T22:49:24.562Z,10.65
2023-02-06T22:51:53.745Z,11.18
2023-02-06T22:54:22.284Z,11.80
2023-02-06T22:56:51.419Z,10.15
2023-02-06T22:59:24.140Z,9.93
2023-02-06T23:01:58.337Z,10.43
2023-02-06T23:04:29.546Z,11.10
2023-02-06T23:06:58.614Z,11.55
2023-02-06T23:09:30.378Z,10.68
2023-02-06T23:11:59.983Z,11.23
2023-02-06T23:14:32.039Z,11.55
2023-02-06T23:17:02.598Z,11.52
2023-02-06T23:19:31.430Z,10.98
2023-02-06T23:21:59.944Z,11.30
2023-02-06T23:24:28.607Z,10.88
2023-02-06T23:26:57.674Z,12.38
2023-02-06T23:29:26.178Z,10.98
2023-02-06T23:31:56.643Z,11.27
2023-02-06T23:34:25.360Z,8.57
2023-02-06T23:36:54.196Z,10.75
2023-02-06T23:39:23.133Z,10.82
2023-02-06T23:41:51.754Z,11.77
2023-02-06T23:44:20.448Z,11.48
2023-02-06T23:46:49.132Z,9.38
2023-02-06T23:49:19.196Z,10.95
2023-02-06T23:51:47.919Z,10.07
2023-02-06T23:54:16.460Z,8.93
2023-02-06T23:56:45.022Z,8.85
2023-02-06T23:59:14.944Z,11.82
